C6545 KDCA-KACY
Flight info
| Callsign | C6545 |
|---|---|
| Flight time | 0h 50m |
| Altitude | 1300 |
| Route | PALEO ACY |
| Aircraft | AS65/L-V/N |
Departure
| Time | 2026-04-11 10:35 |
|---|---|
| Airport | Ronald Reagan Washington National Airport (KDCA) |
Arrival
| Time | 2026-04-11 11:25 |
|---|---|
| Airport | Atlantic City International Airport (KACY) |
| Time | Latitude | Longitude | Altitude | Speed | Heading |
|---|---|---|---|---|---|
| 2026-04-11 10:24 | 38.84625 | -77.04631 | 21 ft | 0 kts | 318° |
| 2026-04-11 10:30 | 38.84624 | -77.04656 | 151 ft | 7 kts | 290° |
| 2026-04-11 10:30 | 38.84587 | -77.04740 | 299 ft | 21 kts | 217° |
| 2026-04-11 10:31 | 38.84376 | -77.04901 | 409 ft | 52 kts | 222° |
| 2026-04-11 10:31 | 38.84306 | -77.05469 | 461 ft | 80 kts | 281° |
| 2026-04-11 10:31 | 38.84615 | -77.06150 | 478 ft | 99 kts | 316° |
| 2026-04-11 10:31 | 38.85261 | -77.06576 | 475 ft | 112 kts | 339° |
| 2026-04-11 10:32 | 38.86034 | -77.06850 | 472 ft | 120 kts | 1° |
| 2026-04-11 10:32 | 38.86853 | -77.06586 | 467 ft | 123 kts | 25° |
| 2026-04-11 10:32 | 38.87600 | -77.06048 | 330 ft | 124 kts | 34° |
| 2026-04-11 10:32 | 38.88177 | -77.05251 | 271 ft | 125 kts | 70° |
| 2026-04-11 10:33 | 38.88308 | -77.04152 | 254 ft | 125 kts | 92° |
| 2026-04-11 10:33 | 38.88029 | -77.03128 | 239 ft | 124 kts | 130° |
| 2026-04-11 10:33 | 38.87357 | -77.02461 | 235 ft | 123 kts | 158° |
| 2026-04-11 10:33 | 38.86586 | -77.02019 | 226 ft | 126 kts | 145° |
| 2026-04-11 10:34 | 38.86284 | -77.00967 | 216 ft | 138 kts | 80° |
| 2026-04-11 10:34 | 38.86894 | -77.00046 | 239 ft | 137 kts | 49° |
| 2026-04-11 10:34 | 38.87267 | -76.98967 | 236 ft | 131 kts | 74° |
| 2026-04-11 10:34 | 38.87604 | -76.97884 | 358 ft | 130 kts | 67° |
| 2026-04-11 10:35 | 38.88161 | -76.96995 | 453 ft | 130 kts | 39° |
| 2026-04-11 10:35 | 38.88967 | -76.96495 | 495 ft | 128 kts | 21° |
| 2026-04-11 10:35 | 38.89821 | -76.96154 | 511 ft | 128 kts | 17° |
| 2026-04-11 10:35 | 38.90689 | -76.95853 | 662 ft | 130 kts | 22° |
| 2026-04-11 10:36 | 38.91417 | -76.95195 | 737 ft | 129 kts | 49° |
| 2026-04-11 10:36 | 38.91771 | -76.94170 | 775 ft | 128 kts | 83° |
| 2026-04-11 10:36 | 38.91714 | -76.93027 | 910 ft | 130 kts | 98° |
| 2026-04-11 10:36 | 38.91564 | -76.91871 | 1105 ft | 129 kts | 101° |
| 2026-04-11 10:37 | 38.91397 | -76.90754 | 1195 ft | 126 kts | 102° |
| 2026-04-11 10:37 | 38.91225 | -76.89657 | 1226 ft | 124 kts | 102° |
| 2026-04-11 10:37 | 38.91052 | -76.88543 | 1235 ft | 130 kts | 102° |
| 2026-04-11 10:37 | 38.90875 | -76.87384 | 1245 ft | 135 kts | 102° |
| 2026-04-11 10:38 | 38.90719 | -76.86187 | 1249 ft | 137 kts | 97° |
| 2026-04-11 10:38 | 38.90662 | -76.84960 | 1253 ft | 139 kts | 90° |
| 2026-04-11 10:38 | 38.90834 | -76.82478 | 1232 ft | 143 kts | 81° |
| 2026-04-11 10:39 | 38.91024 | -76.81211 | 1232 ft | 146 kts | 78° |
| 2026-04-11 10:39 | 38.91260 | -76.79933 | 1231 ft | 148 kts | 76° |
| 2026-04-11 10:39 | 38.91528 | -76.78646 | 1231 ft | 150 kts | 74° |
| 2026-04-11 10:39 | 38.91817 | -76.77355 | 1233 ft | 152 kts | 73° |
| 2026-04-11 10:40 | 38.92126 | -76.76050 | 1234 ft | 153 kts | 73° |
| 2026-04-11 10:40 | 38.92439 | -76.74743 | 1235 ft | 154 kts | 72° |
| 2026-04-11 10:40 | 38.92770 | -76.73426 | 1248 ft | 155 kts | 72° |
| 2026-04-11 10:40 | 38.93102 | -76.72121 | 1262 ft | 156 kts | 72° |
| 2026-04-11 10:41 | 38.93446 | -76.70773 | 1261 ft | 157 kts | 72° |
| 2026-04-11 10:41 | 38.93782 | -76.69458 | 1262 ft | 158 kts | 72° |
| 2026-04-11 10:41 | 38.94126 | -76.68116 | 1258 ft | 159 kts | 72° |
| 2026-04-11 10:41 | 38.94471 | -76.66772 | 1258 ft | 159 kts | 72° |
| 2026-04-11 10:42 | 38.94818 | -76.65419 | 1263 ft | 159 kts | 72° |
| 2026-04-11 10:42 | 38.95165 | -76.64067 | 1262 ft | 159 kts | 72° |
| 2026-04-11 10:42 | 38.95508 | -76.62730 | 1260 ft | 159 kts | 72° |
| 2026-04-11 10:42 | 38.95856 | -76.61377 | 1260 ft | 160 kts | 72° |
| 2026-04-11 10:43 | 38.96546 | -76.58683 | 1262 ft | 157 kts | 72° |
| 2026-04-11 10:43 | 38.96885 | -76.57354 | 1260 ft | 157 kts | 72° |
| 2026-04-11 10:43 | 38.97223 | -76.56024 | 1254 ft | 156 kts | 72° |
| 2026-04-11 10:44 | 38.97561 | -76.54703 | 1258 ft | 156 kts | 72° |
| 2026-04-11 10:44 | 38.97898 | -76.53386 | 1257 ft | 155 kts | 72° |
| 2026-04-11 10:44 | 38.98233 | -76.52070 | 1254 ft | 154 kts | 72° |
| 2026-04-11 10:44 | 38.98567 | -76.50759 | 1256 ft | 154 kts | 72° |
| 2026-04-11 10:45 | 38.98896 | -76.49454 | 1252 ft | 154 kts | 73° |
| 2026-04-11 10:45 | 38.99226 | -76.48152 | 1237 ft | 153 kts | 72° |
| 2026-04-11 10:45 | 38.99558 | -76.46850 | 1231 ft | 153 kts | 73° |
| 2026-04-11 10:45 | 38.99883 | -76.45570 | 1237 ft | 153 kts | 73° |
| 2026-04-11 10:46 | 39.00212 | -76.44270 | 1236 ft | 153 kts | 73° |
| 2026-04-11 10:46 | 39.00541 | -76.42973 | 1238 ft | 153 kts | 73° |
| 2026-04-11 10:46 | 39.00871 | -76.41671 | 1234 ft | 153 kts | 72° |
| 2026-04-11 10:46 | 39.01198 | -76.40375 | 1236 ft | 152 kts | 72° |
| 2026-04-11 10:47 | 39.01526 | -76.39080 | 1235 ft | 152 kts | 73° |
| 2026-04-11 10:47 | 39.01853 | -76.37790 | 1238 ft | 152 kts | 73° |
| 2026-04-11 10:47 | 39.02173 | -76.36517 | 1231 ft | 152 kts | 73° |
| 2026-04-11 10:47 | 39.02500 | -76.35226 | 1236 ft | 152 kts | 73° |
| 2026-04-11 10:48 | 39.02825 | -76.33938 | 1238 ft | 152 kts | 73° |
| 2026-04-11 10:48 | 39.03152 | -76.32644 | 1237 ft | 152 kts | 73° |
| 2026-04-11 10:48 | 39.03476 | -76.31356 | 1239 ft | 152 kts | 73° |
| 2026-04-11 10:48 | 39.03802 | -76.30064 | 1240 ft | 152 kts | 73° |
| 2026-04-11 10:49 | 39.04126 | -76.28771 | 1241 ft | 152 kts | 73° |
| 2026-04-11 10:49 | 39.04452 | -76.27479 | 1240 ft | 152 kts | 73° |
| 2026-04-11 10:49 | 39.04756 | -76.26271 | 1237 ft | 152 kts | 73° |
| 2026-04-11 10:49 | 39.05074 | -76.25008 | 1241 ft | 152 kts | 74° |
| 2026-04-11 10:50 | 39.05400 | -76.23708 | 1243 ft | 151 kts | 73° |
| 2026-04-11 10:50 | 39.05724 | -76.22425 | 1242 ft | 151 kts | 73° |
| 2026-04-11 10:50 | 39.06047 | -76.21134 | 1238 ft | 151 kts | 73° |
| 2026-04-11 10:50 | 39.06370 | -76.19849 | 1241 ft | 151 kts | 74° |
| 2026-04-11 10:51 | 39.06691 | -76.18565 | 1239 ft | 151 kts | 74° |
| 2026-04-11 10:51 | 39.07012 | -76.17289 | 1241 ft | 151 kts | 73° |
| 2026-04-11 10:51 | 39.07333 | -76.16002 | 1240 ft | 151 kts | 74° |
| 2026-04-11 10:51 | 39.07651 | -76.14733 | 1240 ft | 151 kts | 73° |
| 2026-04-11 10:52 | 39.07966 | -76.13473 | 1243 ft | 151 kts | 73° |
| 2026-04-11 10:52 | 39.08287 | -76.12194 | 1243 ft | 150 kts | 74° |
| 2026-04-11 10:52 | 39.08613 | -76.10924 | 1248 ft | 147 kts | 73° |
| 2026-04-11 10:52 | 39.08967 | -76.09672 | 1243 ft | 150 kts | 72° |
| 2026-04-11 10:53 | 39.09331 | -76.08415 | 1237 ft | 150 kts | 71° |
| 2026-04-11 10:53 | 39.09696 | -76.07153 | 1241 ft | 150 kts | 71° |
| 2026-04-11 10:53 | 39.10059 | -76.05891 | 1240 ft | 150 kts | 71° |
| 2026-04-11 10:53 | 39.10417 | -76.04647 | 1242 ft | 150 kts | 71° |
| 2026-04-11 10:54 | 39.10784 | -76.03383 | 1241 ft | 150 kts | 71° |
| 2026-04-11 10:54 | 39.11150 | -76.02129 | 1241 ft | 150 kts | 71° |
| 2026-04-11 10:54 | 39.11513 | -76.00870 | 1237 ft | 150 kts | 72° |
| 2026-04-11 10:54 | 39.11767 | -75.99603 | 1252 ft | 139 kts | 81° |
| 2026-04-11 10:55 | 39.11978 | -75.98363 | 1236 ft | 144 kts | 79° |
| 2026-04-11 10:55 | 39.12212 | -75.97121 | 1242 ft | 142 kts | 78° |
| 2026-04-11 10:55 | 39.12466 | -75.95889 | 1240 ft | 142 kts | 77° |
| 2026-04-11 10:55 | 39.12732 | -75.94683 | 1234 ft | 142 kts | 76° |
| 2026-04-11 10:56 | 39.13013 | -75.93445 | 1239 ft | 142 kts | 76° |
| 2026-04-11 10:56 | 39.13297 | -75.92245 | 1237 ft | 142 kts | 75° |
| 2026-04-11 10:56 | 39.13591 | -75.91028 | 1237 ft | 142 kts | 75° |
| 2026-04-11 10:56 | 39.13886 | -75.89812 | 1234 ft | 142 kts | 75° |
| 2026-04-11 10:57 | 39.14182 | -75.88597 | 1235 ft | 142 kts | 75° |
| 2026-04-11 10:57 | 39.14476 | -75.87385 | 1235 ft | 142 kts | 75° |
| 2026-04-11 10:57 | 39.14771 | -75.86173 | 1236 ft | 142 kts | 76° |
| 2026-04-11 10:57 | 39.15067 | -75.84954 | 1236 ft | 142 kts | 75° |
| 2026-04-11 10:58 | 39.15361 | -75.83745 | 1242 ft | 142 kts | 75° |
| 2026-04-11 10:58 | 39.15653 | -75.82559 | 1236 ft | 142 kts | 75° |
| 2026-04-11 10:58 | 39.15954 | -75.81337 | 1234 ft | 142 kts | 75° |
| 2026-04-11 10:58 | 39.16253 | -75.80126 | 1232 ft | 142 kts | 75° |
| 2026-04-11 10:59 | 39.16554 | -75.78906 | 1240 ft | 142 kts | 75° |
| 2026-04-11 10:59 | 39.16852 | -75.77699 | 1235 ft | 142 kts | 75° |
| 2026-04-11 10:59 | 39.17150 | -75.76488 | 1237 ft | 142 kts | 75° |
| 2026-04-11 10:59 | 39.17448 | -75.75279 | 1235 ft | 141 kts | 75° |
| 2026-04-11 11:00 | 39.17745 | -75.74071 | 1236 ft | 141 kts | 75° |
| 2026-04-11 11:00 | 39.18039 | -75.72879 | 1239 ft | 142 kts | 75° |
| 2026-04-11 11:00 | 39.18336 | -75.71671 | 1232 ft | 142 kts | 76° |
| 2026-04-11 11:00 | 39.18633 | -75.70460 | 1240 ft | 141 kts | 76° |
| 2026-04-11 11:01 | 39.18926 | -75.69271 | 1236 ft | 141 kts | 76° |
| 2026-04-11 11:01 | 39.19221 | -75.68069 | 1235 ft | 141 kts | 76° |
| 2026-04-11 11:01 | 39.19487 | -75.66985 | 1236 ft | 141 kts | 76° |
| 2026-04-11 11:01 | 39.19773 | -75.65818 | 1236 ft | 141 kts | 75° |
| 2026-04-11 11:02 | 39.20057 | -75.64659 | 1238 ft | 142 kts | 75° |
| 2026-04-11 11:02 | 39.20340 | -75.63506 | 1232 ft | 141 kts | 75° |
| 2026-04-11 11:02 | 39.20642 | -75.62278 | 1230 ft | 141 kts | 76° |
| 2026-04-11 11:02 | 39.20833 | -75.61496 | 1233 ft | 141 kts | 76° |
| 2026-04-11 11:03 | 39.21092 | -75.60437 | 1233 ft | 141 kts | 76° |
| 2026-04-11 11:03 | 39.21447 | -75.58986 | 1232 ft | 141 kts | 76° |
| 2026-04-11 11:03 | 39.21722 | -75.57860 | 1228 ft | 141 kts | 76° |
| 2026-04-11 11:03 | 39.22014 | -75.56665 | 1228 ft | 141 kts | 75° |
| 2026-04-11 11:04 | 39.22315 | -75.55442 | 1223 ft | 141 kts | 75° |
| 2026-04-11 11:04 | 39.22611 | -75.54237 | 1221 ft | 141 kts | 75° |
| 2026-04-11 11:04 | 39.22904 | -75.53044 | 1217 ft | 141 kts | 75° |
| 2026-04-11 11:04 | 39.23200 | -75.51839 | 1222 ft | 141 kts | 75° |
| 2026-04-11 11:05 | 39.23495 | -75.50638 | 1220 ft | 141 kts | 75° |
| 2026-04-11 11:05 | 39.23791 | -75.49433 | 1222 ft | 141 kts | 75° |
| 2026-04-11 11:05 | 39.24088 | -75.48226 | 1221 ft | 142 kts | 75° |
| 2026-04-11 11:05 | 39.24408 | -75.46959 | 1218 ft | 150 kts | 75° |
| 2026-04-11 11:06 | 39.24714 | -75.45716 | 1223 ft | 145 kts | 75° |
| 2026-04-11 11:06 | 39.25021 | -75.44475 | 1223 ft | 145 kts | 75° |
| 2026-04-11 11:06 | 39.25324 | -75.43248 | 1222 ft | 146 kts | 75° |
| 2026-04-11 11:06 | 39.25632 | -75.42003 | 1221 ft | 145 kts | 75° |
| 2026-04-11 11:07 | 39.25939 | -75.40759 | 1220 ft | 146 kts | 75° |
| 2026-04-11 11:07 | 39.26247 | -75.39512 | 1218 ft | 146 kts | 75° |
| 2026-04-11 11:07 | 39.26550 | -75.38264 | 1221 ft | 146 kts | 75° |
| 2026-04-11 11:07 | 39.26854 | -75.37012 | 1219 ft | 146 kts | 76° |
| 2026-04-11 11:08 | 39.27155 | -75.35767 | 1219 ft | 145 kts | 76° |
| 2026-04-11 11:08 | 39.27458 | -75.34521 | 1218 ft | 145 kts | 75° |
| 2026-04-11 11:08 | 39.27759 | -75.33274 | 1221 ft | 146 kts | 76° |
| 2026-04-11 11:08 | 39.28058 | -75.32043 | 1219 ft | 146 kts | 75° |
| 2026-04-11 11:09 | 39.28360 | -75.30790 | 1216 ft | 146 kts | 75° |
| 2026-04-11 11:09 | 39.28663 | -75.29536 | 1223 ft | 146 kts | 75° |
| 2026-04-11 11:09 | 39.28964 | -75.28288 | 1225 ft | 146 kts | 75° |
| 2026-04-11 11:09 | 39.29266 | -75.27038 | 1223 ft | 146 kts | 75° |
| 2026-04-11 11:10 | 39.29568 | -75.25787 | 1222 ft | 146 kts | 75° |
| 2026-04-11 11:10 | 39.29870 | -75.24535 | 1222 ft | 146 kts | 75° |
| 2026-04-11 11:10 | 39.30172 | -75.23281 | 1227 ft | 146 kts | 75° |
| 2026-04-11 11:10 | 39.30471 | -75.22041 | 1225 ft | 146 kts | 75° |
| 2026-04-11 11:11 | 39.30774 | -75.20782 | 1228 ft | 147 kts | 75° |
| 2026-04-11 11:11 | 39.31076 | -75.19529 | 1229 ft | 146 kts | 75° |
| 2026-04-11 11:11 | 39.31377 | -75.18274 | 1225 ft | 147 kts | 75° |
| 2026-04-11 11:11 | 39.31679 | -75.17020 | 1227 ft | 146 kts | 75° |
| 2026-04-11 11:12 | 39.31981 | -75.15764 | 1233 ft | 146 kts | 75° |
| 2026-04-11 11:12 | 39.32283 | -75.14505 | 1228 ft | 147 kts | 75° |
| 2026-04-11 11:12 | 39.32584 | -75.13248 | 1228 ft | 147 kts | 74° |
| 2026-04-11 11:12 | 39.32883 | -75.12005 | 1232 ft | 147 kts | 75° |
| 2026-04-11 11:13 | 39.33186 | -75.10742 | 1228 ft | 147 kts | 75° |
| 2026-04-11 11:13 | 39.33488 | -75.09481 | 1233 ft | 147 kts | 75° |
| 2026-04-11 11:13 | 39.33789 | -75.08222 | 1230 ft | 147 kts | 75° |
| 2026-04-11 11:13 | 39.34091 | -75.06963 | 1225 ft | 147 kts | 74° |
| 2026-04-11 11:14 | 39.34392 | -75.05705 | 1227 ft | 147 kts | 74° |
| 2026-04-11 11:14 | 39.34691 | -75.04451 | 1229 ft | 147 kts | 74° |
| 2026-04-11 11:14 | 39.34993 | -75.03192 | 1231 ft | 147 kts | 74° |
| 2026-04-11 11:14 | 39.35293 | -75.01932 | 1228 ft | 147 kts | 74° |
| 2026-04-11 11:15 | 39.35594 | -75.00673 | 1231 ft | 147 kts | 74° |
| 2026-04-11 11:15 | 39.35796 | -74.99824 | 1229 ft | 146 kts | 74° |
| 2026-04-11 11:15 | 39.36066 | -74.98692 | 1232 ft | 147 kts | 74° |
| 2026-04-11 11:15 | 39.36365 | -74.97435 | 1227 ft | 147 kts | 74° |
| 2026-04-11 11:16 | 39.36565 | -74.96599 | 1227 ft | 147 kts | 74° |
| 2026-04-11 11:16 | 39.36963 | -74.94926 | 1230 ft | 146 kts | 74° |
| 2026-04-11 11:16 | 39.37262 | -74.93672 | 1229 ft | 146 kts | 73° |
| 2026-04-11 11:16 | 39.37561 | -74.92416 | 1227 ft | 146 kts | 74° |
| 2026-04-11 11:17 | 39.37860 | -74.91159 | 1228 ft | 146 kts | 74° |
| 2026-04-11 11:17 | 39.38157 | -74.89909 | 1222 ft | 147 kts | 74° |
| 2026-04-11 11:17 | 39.38456 | -74.88649 | 1225 ft | 146 kts | 74° |
| 2026-04-11 11:17 | 39.38657 | -74.87799 | 1227 ft | 147 kts | 73° |
| 2026-04-11 11:18 | 39.39052 | -74.86137 | 1223 ft | 146 kts | 74° |
| 2026-04-11 11:18 | 39.39351 | -74.84873 | 1223 ft | 146 kts | 74° |
| 2026-04-11 11:18 | 39.39549 | -74.84042 | 1224 ft | 146 kts | 73° |
| 2026-04-11 11:18 | 39.39846 | -74.82787 | 1224 ft | 146 kts | 74° |
| 2026-04-11 11:19 | 39.40240 | -74.81120 | 1221 ft | 146 kts | 73° |
| 2026-04-11 11:19 | 39.40538 | -74.79866 | 1225 ft | 146 kts | 74° |
| 2026-04-11 11:19 | 39.40733 | -74.79042 | 1226 ft | 146 kts | 73° |
| 2026-04-11 11:19 | 39.41033 | -74.77779 | 1225 ft | 146 kts | 73° |
| 2026-04-11 11:20 | 39.41330 | -74.76526 | 1226 ft | 146 kts | 73° |
| 2026-04-11 11:20 | 39.41629 | -74.75265 | 1221 ft | 146 kts | 73° |
| 2026-04-11 11:20 | 39.42023 | -74.73603 | 1230 ft | 145 kts | 73° |
| 2026-04-11 11:20 | 39.42223 | -74.72759 | 1230 ft | 146 kts | 73° |
| 2026-04-11 11:21 | 39.42518 | -74.71516 | 1227 ft | 146 kts | 73° |
| 2026-04-11 11:21 | 39.42913 | -74.69856 | 1231 ft | 146 kts | 73° |
| 2026-04-11 11:21 | 39.43113 | -74.69012 | 1233 ft | 145 kts | 73° |
| 2026-04-11 11:21 | 39.43506 | -74.67356 | 1228 ft | 145 kts | 73° |
| 2026-04-11 11:22 | 39.43708 | -74.66514 | 1233 ft | 145 kts | 72° |
| 2026-04-11 11:22 | 39.44025 | -74.65322 | 1009 ft | 137 kts | 70° |
| 2026-04-11 11:22 | 39.44387 | -74.64252 | 949 ft | 122 kts | 64° |
| 2026-04-11 11:22 | 39.44780 | -74.63347 | 874 ft | 108 kts | 60° |
| 2026-04-11 11:23 | 39.45113 | -74.62523 | 841 ft | 99 kts | 65° |
| 2026-04-11 11:23 | 39.45361 | -74.61728 | 753 ft | 92 kts | 70° |
| 2026-04-11 11:23 | 39.45602 | -74.61018 | 702 ft | 82 kts | 59° |
| 2026-04-11 11:23 | 39.45860 | -74.60403 | 646 ft | 74 kts | 63° |
| 2026-04-11 11:24 | 39.46058 | -74.59825 | 557 ft | 67 kts | 70° |
| 2026-04-11 11:24 | 39.46195 | -74.59284 | 498 ft | 60 kts | 70° |
| 2026-04-11 11:24 | 39.46295 | -74.58781 | 437 ft | 57 kts | 79° |
| 2026-04-11 11:24 | 39.46330 | -74.58272 | 383 ft | 56 kts | 96° |
| 2026-04-11 11:25 | 39.46252 | -74.57786 | 372 ft | 56 kts | 103° |
| 2026-04-11 11:25 | 39.46142 | -74.57301 | 336 ft | 56 kts | 108° |
| 2026-04-11 11:25 | 39.46024 | -74.56822 | 334 ft | 56 kts | 108° |
| 2026-04-11 11:25 | 39.45846 | -74.56407 | 304 ft | 48 kts | 135° |
| 2026-04-11 11:26 | 39.45633 | -74.56175 | 262 ft | 34 kts | 193° |
| 2026-04-11 11:26 | 39.45446 | -74.56133 | 176 ft | 23 kts | 197° |
| 2026-04-11 11:26 | 39.45329 | -74.56191 | 157 ft | 15 kts | 197° |
| 2026-04-11 11:26 | 39.45238 | -74.56236 | 150 ft | 14 kts | 205° |
| 2026-04-11 11:27 | 39.45168 | -74.56279 | 132 ft | 8 kts | 204° |
| 2026-04-11 11:27 | 39.45111 | -74.56305 | 134 ft | 12 kts | 204° |
| 2026-04-11 11:27 | 39.45039 | -74.56329 | 113 ft | 8 kts | 204° |
| 2026-04-11 11:27 | 39.44992 | -74.56345 | 98 ft | 6 kts | 203° |
| 2026-04-11 11:28 | 39.44967 | -74.56362 | 84 ft | 3 kts | 203° |
| 2026-04-11 11:28 | 39.44953 | -74.56372 | 73 ft | 3 kts | 204° |
| 2026-04-11 11:28 | 39.44943 | -74.56376 | 70 ft | 0 kts | 204° |
| 2026-04-11 11:28 | 39.44941 | -74.56376 | 62 ft | 1 kts | 204° |
| 2026-04-11 11:29 | 39.44934 | -74.56382 | 67 ft | 1 kts | 210° |
| 2026-04-11 11:29 | 39.44931 | -74.56384 | 69 ft | 0 kts | 211° |